Time;durP1;ratioP1;P1;durP2;ratioP2;P2;SDS_P1;SDS_P2;PMS_P1;PMS_P2;Temp;Humidity;BMP_temperature;BMP_pressure;BME280_temperature;BME280_humidity;BME280_pressure;Samples;Min_cycle;Max_cycle;Signal;HPM_P1;HPM_P2
2021/12/11 00:00:58;;;;;;;25.58;14.90;;;9.60;89.00;;;;;;5056648;28;20041;-34
2021/12/11 00:03:27;;;;;;;26.35;14.65;;;9.60;89.00;;;;;;5056003;28;20037;-34
2021/12/11 00:06:16;;;;;;;26.30;14.90;;;9.50;89.00;;;;;;5056578;28;20115;-44
2021/12/11 00:08:45;;;;;;;22.13;14.05;;;9.50;89.60;;;;;;5055578;28;20067;-41
2021/12/11 00:11:22;;;;;;;22.10;14.15;;;9.40;89.30;;;;;;5056022;28;20021;-44
2021/12/11 00:13:47;;;;;;;23.85;15.65;;;9.40;89.60;;;;;;5055532;28;20036;-33
2021/12/11 00:16:18;;;;;;;24.60;15.70;;;9.30;89.90;;;;;;5056018;28;20025;-34
2021/12/11 00:18:48;;;;;;;21.90;14.02;;;9.30;90.00;;;;;;5055994;28;20317;-34
2021/12/11 00:21:17;;;;;;;23.30;15.90;;;9.30;90.00;;;;;;5056059;28;20040;-46
2021/12/11 00:23:49;;;;;;;24.23;15.68;;;9.30;90.20;;;;;;5054793;28;20102;-33
2021/12/11 00:26:33;;;;;;;28.45;17.48;;;9.30;90.30;;;;;;5056273;28;20021;-43
2021/12/11 00:28:59;;;;;;;23.98;14.52;;;9.40;90.40;;;;;;5055837;28;20036;-36
2021/12/11 00:31:27;;;;;;;24.95;15.57;;;9.30;90.40;;;;;;5055771;28;20036;-43
2021/12/11 00:33:55;;;;;;;24.92;16.40;;;9.40;90.50;;;;;;5055452;28;20032;-33
2021/12/11 00:36:28;;;;;;;25.92;16.38;;;9.40;90.50;;;;;;5055629;28;20021;-33
2021/12/11 00:39:00;;;;;;;28.63;16.80;;;9.50;90.60;;;;;;5055639;28;20112;-37
2021/12/11 00:41:25;;;;;;;26.48;16.70;;;9.50;90.60;;;;;;5055717;28;20031;-43
2021/12/11 00:43:53;;;;;;;25.77;16.40;;;9.60;90.50;;;;;;5055504;28;20025;-44
2021/12/11 00:46:26;;;;;;;25.05;17.42;;;9.60;90.50;;;;;;5055965;28;20421;-34
2021/12/11 00:48:53;;;;;;;26.08;16.75;;;9.60;90.50;;;;;;5055438;28;20325;-44
2021/12/11 00:51:22;;;;;;;24.98;16.13;;;9.60;90.40;;;;;;5055624;28;20380;-44
2021/12/11 00:53:57;;;;;;;27.23;16.63;;;9.70;90.40;;;;;;5055317;28;20075;-34
2021/12/11 00:56:29;;;;;;;25.65;16.92;;;9.70;90.20;;;;;;5055686;28;20029;-34
2021/12/11 00:58:59;;;;;;;27.58;16.70;;;9.70;90.20;;;;;;5055775;28;20056;-44
2021/12/11 01:01:27;;;;;;;26.77;16.92;;;9.80;90.10;;;;;;5055899;28;20025;-34
2021/12/11 01:04:01;;;;;;;27.45;17.48;;;9.70;89.90;;;;;;5055246;28;20094;-44
2021/12/11 01:06:29;;;;;;;22.83;15.98;;;9.70;90.10;;;;;;5055792;28;20029;-35
2021/12/11 01:09:01;;;;;;;25.20;15.25;;;9.80;89.60;;;;;;5055277;28;20029;-44
2021/12/11 01:11:48;;;;;;;24.90;15.50;;;9.70;89.40;;;;;;5055581;28;20025;-44
2021/12/11 01:14:24;;;;;;;22.88;13.77;;;9.70;89.10;;;;;;5055468;28;20083;-34
2021/12/11 01:17:20;;;;;;;20.50;13.20;;;9.70;88.90;;;;;;5055783;28;20376;-44
2021/12/11 01:19:55;;;;;;;19.77;12.35;;;9.70;88.60;;;;;;5054760;28;20036;-34
2021/12/11 01:22:35;;;;;;;21.23;13.32;;;9.70;88.60;;;;;;5055409;28;20040;-34
2021/12/11 01:25:09;;;;;;;25.77;14.30;;;9.60;88.00;;;;;;5055513;28;20030;-34
2021/12/11 01:27:37;;;;;;;26.30;13.48;;;9.60;87.40;;;;;;5055539;28;20333;-44
2021/12/11 01:30:06;;;;;;;20.88;13.95;;;9.50;87.10;;;;;;5055435;28;20083;-44
2021/12/11 01:32:31;;;;;;;25.17;14.15;;;9.50;87.00;;;;;;5055316;28;20376;-44
2021/12/11 01:35:00;;;;;;;23.33;14.57;;;9.40;87.30;;;;;;5055749;28;20049;-35
2021/12/11 01:37:26;;;;;;;27.38;15.93;;;9.30;87.60;;;;;;5058865;28;20460;-44
2021/12/11 01:39:52;;;;;;;28.67;16.48;;;9.30;88.00;;;;;;5057308;28;20111;-34
2021/12/11 01:42:26;;;;;;;24.83;14.02;;;9.30;88.20;;;;;;5059209;28;20433;-44
2021/12/11 01:44:53;;;;;;;23.73;15.23;;;9.20;88.30;;;;;;5058695;28;20033;-45
2021/12/11 01:47:31;;;;;;;23.52;14.43;;;9.20;88.50;;;;;;5058770;28;20433;-44
2021/12/11 01:50:09;;;;;;;21.98;14.25;;;9.20;88.60;;;;;;5057395;28;20371;-44
2021/12/11 01:52:50;;;;;;;24.25;14.57;;;9.20;88.70;;;;;;5058517;28;20028;-33
2021/12/11 01:55:37;;;;;;;28.30;14.95;;;9.20;88.80;;;;;;5058684;28;20075;-44
2021/12/11 01:58:06;;;;;;;25.02;15.07;;;9.20;89.00;;;;;;5058991;28;20073;-44
2021/12/11 02:00:40;;;;;;;25.15;14.15;;;9.20;89.00;;;;;;5058564;28;20040;-44
2021/12/11 02:03:14;;;;;;;25.33;15.00;;;9.10;88.90;;;;;;5058818;28;20325;-43
2021/12/11 02:05:42;;;;;;;25.52;14.32;;;9.10;88.90;;;;;;5058554;28;20120;-34
2021/12/11 02:08:13;;;;;;;23.05;14.68;;;9.10;88.90;;;;;;5058579;28;20021;-44
2021/12/11 02:10:55;;;;;;;22.23;13.63;;;9.10;88.70;;;;;;5058301;28;20151;-44
2021/12/11 02:13:36;;;;;;;24.88;14.75;;;9.10;88.40;;;;;;5058240;28;20490;-35
2021/12/11 02:16:03;;;;;;;26.10;14.57;;;9.10;88.30;;;;;;5058628;28;20036;-34
2021/12/11 02:18:35;;;;;;;24.92;14.93;;;9.10;88.20;;;;;;5058051;28;20067;-44
2021/12/11 02:21:10;;;;;;;24.05;14.35;;;9.10;88.20;;;;;;5058461;28;20493;-44
2021/12/11 02:23:36;;;;;;;25.65;13.98;;;9.10;88.30;;;;;;5057768;28;20027;-45
2021/12/11 02:26:10;;;;;;;24.98;14.75;;;9.00;88.20;;;;;;5058237;28;20029;-44
2021/12/11 02:28:47;;;;;;;25.15;15.13;;;9.00;88.20;;;;;;5057600;28;20033;-44
2021/12/11 02:31:35;;;;;;;24.58;14.35;;;8.90;88.10;;;;;;5057868;28;20021;-44
2021/12/11 02:34:25;;;;;;;27.48;14.38;;;8.90;88.10;;;;;;5057538;28;20072;-34
2021/12/11 02:36:54;;;;;;;31.15;14.93;;;8.90;88.30;;;;;;5057412;28;20086;-44
2021/12/11 02:39:25;;;;;;;29.30;14.57;;;8.90;88.30;;;;;;5057450;28;20112;-33
2021/12/11 02:42:07;;;;;;;29.42;15.13;;;8.90;88.30;;;;;;5058002;28;20021;-36
2021/12/11 02:44:44;;;;;;;21.15;13.95;;;8.90;88.30;;;;;;5057345;28;20056;-36
2021/12/11 02:47:12;;;;;;;26.48;15.20;;;8.80;88.30;;;;;;5056699;28;20092;-46
2021/12/11 02:49:59;;;;;;;30.20;14.98;;;8.80;88.60;;;;;;5057190;28;20510;-36
2021/12/11 02:52:31;;;;;;;25.73;14.40;;;8.80;88.50;;;;;;5057619;28;20060;-43
2021/12/11 02:55:16;;;;;;;27.08;14.38;;;8.80;88.50;;;;;;5057447;28;20029;-33
2021/12/11 02:57:52;;;;;;;24.40;14.45;;;8.70;88.20;;;;;;5057213;28;20017;-36
2021/12/11 03:00:30;;;;;;;25.98;15.07;;;8.70;88.40;;;;;;5057590;28;20025;-44
2021/12/11 03:03:04;;;;;;;29.42;16.23;;;8.70;88.40;;;;;;5057399;28;20100;-44
2021/12/11 03:05:39;;;;;;;25.48;15.35;;;8.60;88.30;;;;;;5057038;28;20036;-45
2021/12/11 03:08:08;;;;;;;34.30;17.08;;;8.60;88.40;;;;;;5057603;28;20067;-45
2021/12/11 03:10:37;;;;;;;27.25;15.82;;;8.60;88.60;;;;;;5057240;28;20033;-35
2021/12/11 03:13:04;;;;;;;29.50;16.30;;;8.60;88.70;;;;;;5057097;28;20028;-34
2021/12/11 03:15:31;;;;;;;28.48;16.33;;;8.50;88.60;;;;;;5057395;28;20095;-44
2021/12/11 03:17:57;;;;;;;28.13;16.25;;;8.50;88.70;;;;;;5057256;28;20025;-34
2021/12/11 03:20:24;;;;;;;27.30;15.73;;;8.50;88.80;;;;;;5057054;28;20051;-44
2021/12/11 03:22:50;;;;;;;34.63;17.35;;;8.40;88.80;;;;;;5056969;28;20040;-44
2021/12/11 03:25:23;;;;;;;29.90;16.65;;;8.40;88.90;;;;;;5056960;28;20036;-43
2021/12/11 03:27:49;;;;;;;29.65;16.13;;;8.40;89.00;;;;;;5056897;28;20104;-44
2021/12/11 03:30:21;;;;;;;28.95;16.52;;;8.40;89.20;;;;;;5056889;28;20115;-34
2021/12/11 03:32:53;;;;;;;29.52;16.27;;;8.30;89.20;;;;;;5056655;28;20321;-44
2021/12/11 03:35:20;;;;;;;32.30;16.88;;;8.30;89.80;;;;;;5056757;28;20029;-44
2021/12/11 03:37:46;;;;;;;34.42;17.10;;;8.30;89.30;;;;;;5056627;28;20352;-44
2021/12/11 03:40:13;;;;;;;33.25;17.35;;;8.30;89.50;;;;;;5056668;28;20303;-44
2021/12/11 03:42:41;;;;;;;32.97;17.10;;;8.30;89.70;;;;;;5056700;28;20413;-46
2021/12/11 03:45:14;;;;;;;30.77;17.27;;;8.30;89.80;;;;;;5056555;28;20090;-37
2021/12/11 03:47:44;;;;;;;29.77;17.00;;;8.30;90.00;;;;;;5056551;28;20025;-46
2021/12/11 03:50:12;;;;;;;32.78;17.58;;;8.30;90.00;;;;;;5055876;28;20130;-45
2021/12/11 03:52:43;;;;;;;31.13;16.45;;;8.30;90.00;;;;;;5056442;28;20079;-34
2021/12/11 03:55:11;;;;;;;29.67;16.45;;;8.30;90.00;;;;;;5056093;28;20376;-45
2021/12/11 03:57:37;;;;;;;29.08;16.63;;;8.30;90.10;;;;;;5056339;28;20053;-34
2021/12/11 04:00:09;;;;;;;27.70;16.27;;;8.30;90.10;;;;;;5056048;28;20055;-35
2021/12/11 04:02:35;;;;;;;31.25;17.10;;;8.30;90.10;;;;;;5056312;28;20044;-45
2021/12/11 04:05:04;;;;;;;29.52;16.30;;;8.30;90.10;;;;;;5056167;28;20120;-46
2021/12/11 04:07:36;;;;;;;28.92;17.08;;;8.30;90.10;;;;;;5055979;28;20021;-35
2021/12/11 04:10:07;;;;;;;29.10;15.55;;;8.40;90.10;;;;;;5055935;28;20115;-44
2021/12/11 04:12:33;;;;;;;28.90;16.48;;;8.30;90.10;;;;;;5055872;28;20029;-45
2021/12/11 04:14:59;;;;;;;27.35;16.02;;;8.40;90.10;;;;;;5055462;28;20033;-34
2021/12/11 04:17:27;;;;;;;27.20;15.20;;;8.40;90.10;;;;;;5055857;28;20025;-45
2021/12/11 04:19:57;;;;;;;28.75;16.50;;;8.40;90.10;;;;;;5056078;28;20412;-45
2021/12/11 04:22:24;;;;;;;27.75;15.95;;;8.40;90.00;;;;;;5056303;28;20021;-34
2021/12/11 04:24:50;;;;;;;28.15;16.48;;;8.40;90.00;;;;;;5055871;28;20124;-34
2021/12/11 04:27:19;;;;;;;27.75;16.60;;;8.40;89.80;;;;;;5055950;28;20104;-36
2021/12/11 04:29:49;;;;;;;30.30;17.15;;;8.40;89.60;;;;;;5055607;28;20401;-35
2021/12/11 04:32:16;;;;;;;29.17;16.98;;;8.40;89.40;;;;;;5055742;28;20032;-46
2021/12/11 04:34:42;;;;;;;32.13;17.20;;;8.40;89.40;;;;;;5055791;28;20037;-37
2021/12/11 04:37:15;;;;;;;30.63;17.38;;;8.30;89.30;;;;;;5055662;28;20032;-45
2021/12/11 04:39:44;;;;;;;30.08;16.77;;;8.30;89.30;;;;;;5055665;28;20033;-34
2021/12/11 04:42:25;;;;;;;32.50;17.83;;;8.20;89.30;;;;;;5055716;28;20031;-45
2021/12/11 04:44:51;;;;;;;30.50;18.25;;;8.20;89.40;;;;;;5055561;28;20378;-34
2021/12/11 04:47:32;;;;;;;28.38;16.55;;;8.20;89.50;;;;;;5055679;28;20131;-45
2021/12/11 04:50:05;;;;;;;28.55;16.33;;;8.20;89.60;;;;;;5055506;28;20389;-45
2021/12/11 04:52:34;;;;;;;34.63;18.25;;;8.10;89.70;;;;;;5055478;28;20104;-34
2021/12/11 04:55:26;;;;;;;28.08;17.42;;;8.10;90.00;;;;;;5055536;28;20330;-45
2021/12/11 05:03:24;;;;;;;37.40;20.98;;;8.10;90.30;;;;;;5055576;28;20444;-46
2021/12/11 05:10:56;;;;;;;38.45;21.98;;;8.20;90.40;;;;;;5057678;28;20460;-34
2021/12/11 05:13:24;;;;;;;37.65;21.75;;;8.20;90.50;;;;;;5059173;28;20029;-45
2021/12/11 05:15:52;;;;;;;38.97;21.92;;;8.20;90.50;;;;;;5059480;28;20414;-46
2021/12/11 05:18:23;;;;;;;39.00;23.02;;;8.20;90.50;;;;;;5058108;28;20036;-45
2021/12/11 05:20:53;;;;;;;39.33;20.85;;;8.20;90.40;;;;;;5059665;28;20029;-35
2021/12/11 05:23:19;;;;;;;42.25;22.52;;;8.30;90.40;;;;;;5059068;28;20083;-45
2021/12/11 05:25:46;;;;;;;40.00;21.83;;;8.30;90.30;;;;;;5059429;28;20033;-45
2021/12/11 05:28:12;;;;;;;38.88;22.10;;;8.30;90.30;;;;;;5059004;28;20025;-45
2021/12/11 05:30:42;;;;;;;39.15;23.23;;;8.30;90.30;;;;;;5058454;28;20037;-34
2021/12/11 05:33:08;;;;;;;36.28;22.02;;;8.30;90.20;;;;;;5058829;28;20064;-35
2021/12/11 05:35:37;;;;;;;38.30;22.38;;;8.30;90.20;;;;;;5059138;28;20065;-36
2021/12/11 05:38:04;;;;;;;37.38;21.08;;;8.30;90.20;;;;;;5059389;28;20039;-45
2021/12/11 05:40:33;;;;;;;36.67;21.08;;;8.30;90.20;;;;;;5058524;28;20033;-36
2021/12/11 05:43:00;;;;;;;36.83;21.27;;;8.30;90.20;;;;;;5058806;28;20029;-37
2021/12/11 05:45:26;;;;;;;40.20;22.35;;;8.30;90.20;;;;;;5058735;28;20033;-35
2021/12/11 05:47:55;;;;;;;37.85;22.00;;;8.30;90.20;;;;;;5058927;28;20040;-34
2021/12/11 05:50:25;;;;;;;36.97;20.58;;;8.30;90.20;;;;;;5058320;28;20170;-45
2021/12/11 05:52:51;;;;;;;36.45;20.88;;;8.30;90.10;;;;;;5058481;28;20036;-45
2021/12/11 05:55:19;;;;;;;37.92;22.02;;;8.30;90.10;;;;;;5058522;28;20040;-34
2021/12/11 05:57:52;;;;;;;41.33;21.35;;;8.30;90.10;;;;;;5058825;28;20419;-37
2021/12/11 06:00:20;;;;;;;37.25;21.55;;;8.30;90.00;;;;;;5058027;28;20175;-45
2021/12/11 06:02:45;;;;;;;39.28;21.55;;;8.30;90.00;;;;;;5052157;28;20106;-36
2021/12/11 06:05:11;;;;;;;36.25;21.48;;;8.30;89.90;;;;;;5046875;28;20099;-45
2021/12/11 06:07:42;;;;;;;32.60;18.95;;;8.30;89.90;;;;;;5038260;28;20034;-45
2021/12/11 06:10:16;;;;;;;34.65;19.10;;;8.30;89.70;;;;;;5038251;28;20045;-35
2021/12/11 06:12:43;;;;;;;30.55;18.67;;;8.30;89.70;;;;;;5038336;28;20330;-44
2021/12/11 06:15:09;;;;;;;27.70;17.17;;;8.30;89.60;;;;;;5038225;28;20369;-34
2021/12/11 06:17:36;;;;;;;37.45;20.30;;;8.30;89.50;;;;;;5038094;28;20398;-34
2021/12/11 06:20:06;;;;;;;33.55;19.77;;;8.30;89.40;;;;;;5038106;28;20119;-37
2021/12/11 06:22:33;;;;;;;34.30;18.48;;;8.30;89.40;;;;;;5037827;28;20460;-33
2021/12/11 06:25:11;;;;;;;31.60;17.67;;;8.30;89.30;;;;;;5038055;28;20029;-43
2021/12/11 06:27:38;;;;;;;28.52;17.27;;;8.30;89.30;;;;;;5038461;28;20361;-33
2021/12/11 06:30:05;;;;;;;31.80;17.27;;;8.20;89.10;;;;;;5037509;28;20434;-45
2021/12/11 06:32:31;;;;;;;30.40;17.98;;;8.20;89.00;;;;;;5037589;28;20041;-43
2021/12/11 06:35:00;;;;;;;28.92;16.75;;;8.20;89.00;;;;;;5037763;28;20038;-34
2021/12/11 06:37:25;;;;;;;32.20;17.25;;;8.20;89.10;;;;;;5038064;28;20319;-44
2021/12/11 06:39:52;;;;;;;27.67;16.30;;;8.20;88.90;;;;;;5037535;28;20086;-43
2021/12/11 06:42:19;;;;;;;28.20;16.25;;;8.20;89.10;;;;;;5042428;28;20057;-36
2021/12/11 06:44:47;;;;;;;31.75;17.25;;;8.20;89.20;;;;;;5045056;28;20037;-34
2021/12/11 06:47:14;;;;;;;36.10;20.92;;;8.20;89.10;;;;;;5046206;28;20104;-44
2021/12/11 06:49:42;;;;;;;36.10;19.67;;;8.10;89.00;;;;;;5046515;28;20626;-44
2021/12/11 06:52:17;;;;;;;35.30;20.05;;;8.10;89.20;;;;;;5045319;28;20021;-33
2021/12/11 06:54:43;;;;;;;29.60;16.38;;;8.10;89.30;;;;;;5053394;28;20049;-43
2021/12/11 06:57:09;;;;;;;26.65;16.45;;;8.10;89.30;;;;;;5046341;28;20033;-44
2021/12/11 06:59:35;;;;;;;29.98;17.17;;;8.10;89.20;;;;;;5045076;28;20159;-44
2021/12/11 07:02:02;;;;;;;28.25;17.30;;;8.10;89.20;;;;;;5049258;28;20314;-33
2021/12/11 07:04:27;;;;;;;26.05;15.50;;;8.00;89.00;;;;;;5056055;28;20046;-44
2021/12/11 07:06:54;;;;;;;32.00;17.25;;;8.00;89.00;;;;;;5053888;28;20040;-34
2021/12/11 07:09:23;;;;;;;28.17;17.10;;;8.10;89.20;;;;;;5044205;28;20038;-35
2021/12/11 07:11:50;;;;;;;27.58;17.08;;;8.10;89.10;;;;;;5036172;28;20043;-44
2021/12/11 07:14:18;;;;;;;34.15;18.30;;;8.00;89.10;;;;;;5035984;28;20037;-33
2021/12/11 07:16:44;;;;;;;30.20;17.08;;;8.00;89.10;;;;;;5036401;28;20045;-34
2021/12/11 07:19:10;;;;;;;30.88;16.20;;;8.00;89.00;;;;;;5035915;28;20465;-33
2021/12/11 07:21:37;;;;;;;26.17;16.75;;;8.00;89.10;;;;;;5046506;28;20025;-33
2021/12/11 07:24:05;;;;;;;31.33;17.45;;;8.00;89.20;;;;;;5045183;28;20046;-34
2021/12/11 07:26:33;;;;;;;32.08;17.52;;;8.00;89.10;;;;;;5044612;28;20405;-44
2021/12/11 07:29:11;;;;;;;34.20;18.75;;;8.00;89.10;;;;;;5045483;28;20041;-34
2021/12/11 07:31:37;;;;;;;29.83;16.08;;;8.00;89.10;;;;;;5046119;28;20032;-33
2021/12/11 07:34:04;;;;;;;33.95;16.73;;;8.00;89.10;;;;;;5043929;28;20061;-33
2021/12/11 07:36:30;;;;;;;27.63;17.48;;;8.00;88.90;;;;;;5043136;28;20021;-44
2021/12/11 07:38:59;;;;;;;29.27;16.27;;;8.00;88.70;;;;;;5049357;28;20363;-33
2021/12/11 07:41:25;;;;;;;30.50;17.42;;;8.00;88.80;;;;;;5055362;28;20108;-44
2021/12/11 07:43:51;;;;;;;27.30;16.17;;;8.00;88.90;;;;;;5047453;28;20120;-35
2021/12/11 07:46:21;;;;;;;39.35;18.17;;;8.00;88.80;;;;;;5046252;28;20039;-32
2021/12/11 07:48:47;;;;;;;60.17;27.45;;;8.00;88.70;;;;;;5044060;28;20035;-44
2021/12/11 07:51:14;;;;;;;32.42;16.23;;;8.00;88.50;;;;;;5044496;28;20048;-42
2021/12/11 07:53:40;;;;;;;38.63;17.88;;;8.00;88.40;;;;;;5045602;28;20119;-33
2021/12/11 07:56:06;;;;;;;32.55;17.27;;;8.00;88.40;;;;;;5054324;28;20032;-34
2021/12/11 07:58:34;;;;;;;29.15;16.50;;;8.00;88.30;;;;;;5044685;28;20268;-44
2021/12/11 08:01:01;;;;;;;28.27;16.13;;;8.00;87.90;;;;;;5044074;28;20045;-43
2021/12/11 08:03:27;;;;;;;36.60;19.08;;;8.00;88.00;;;;;;5045261;28;20432;-44
2021/12/11 08:05:55;;;;;;;31.10;17.13;;;8.00;87.80;;;;;;5045386;28;20069;-44
2021/12/11 08:08:22;;;;;;;31.20;15.93;;;8.00;87.90;;;;;;5043444;28;20033;-44
2021/12/11 08:10:53;;;;;;;34.05;17.48;;;8.00;87.80;;;;;;5052162;28;20044;-34
2021/12/11 08:13:19;;;;;;;25.60;16.20;;;8.00;87.80;;;;;;5054640;28;20401;-34
2021/12/11 08:15:45;;;;;;;23.98;15.82;;;8.00;87.90;;;;;;5055316;28;20040;-44
2021/12/11 08:18:14;;;;;;;25.00;14.95;;;8.00;88.10;;;;;;5052190;28;20021;-43
2021/12/11 08:20:42;;;;;;;59.30;29.25;;;8.00;88.00;;;;;;5035022;28;20033;-34
2021/12/11 08:23:09;;;;;;;51.80;27.92;;;8.00;88.10;;;;;;5034966;28;20453;-33
2021/12/11 08:25:36;;;;;;;32.65;16.42;;;7.90;88.20;;;;;;5034789;28;20038;-33
2021/12/11 08:28:03;;;;;;;27.08;15.88;;;7.90;88.30;;;;;;5034772;28;20036;-34
2021/12/11 08:30:33;;;;;;;30.88;15.60;;;7.90;88.50;;;;;;5034847;28;20135;-33
2021/12/11 08:32:59;;;;;;;35.15;19.52;;;7.90;88.80;;;;;;5034722;28;20025;-44
2021/12/11 08:35:25;;;;;;;37.28;18.75;;;7.90;88.90;;;;;;5038573;28;20333;-34
2021/12/11 08:37:52;;;;;;;32.47;17.35;;;7.90;89.20;;;;;;5054465;28;20071;-35
2021/12/11 08:40:22;;;;;;;47.08;21.48;;;7.90;89.30;;;;;;5054662;28;20091;-36
2021/12/11 08:42:49;;;;;;;44.22;22.02;;;7.90;89.40;;;;;;5054540;28;20040;-44
2021/12/11 08:45:22;;;;;;;33.47;18.45;;;7.90;89.50;;;;;;5049462;28;20041;-44
2021/12/11 08:47:52;;;;;;;111.18;56.90;;;7.90;89.60;;;;;;5045254;28;20029;-33
2021/12/11 08:50:21;;;;;;;85.43;44.00;;;7.90;89.60;;;;;;5053884;28;20098;-33
2021/12/11 08:52:49;;;;;;;88.18;41.63;;;7.80;89.50;;;;;;5047753;28;20021;-33
2021/12/11 08:55:20;;;;;;;141.07;59.45;;;7.80;89.70;;;;;;5047089;28;20422;-36
2021/12/11 08:57:46;;;;;;;41.50;24.08;;;7.80;90.10;;;;;;5047896;28;20309;-44
2021/12/11 09:00:18;;;;;;;48.78;29.38;;;7.80;89.80;;;;;;5046574;28;20100;-44
2021/12/11 09:02:53;;;;;;;64.13;33.50;;;7.80;89.90;;;;;;5047317;28;20032;-33
2021/12/11 09:05:39;;;;;;;39.85;23.80;;;7.80;89.90;;;;;;5047332;28;20334;-34
2021/12/11 09:08:15;;;;;;;44.83;24.35;;;7.80;90.00;;;;;;5041435;28;20369;-44
2021/12/11 09:10:55;;;;;;;33.85;18.15;;;7.80;90.00;;;;;;5042551;28;20072;-44
2021/12/11 09:13:31;;;;;;;47.30;24.30;;;7.70;90.00;;;;;;5046385;28;20036;-44
2021/12/11 09:16:05;;;;;;;59.72;34.83;;;7.70;90.00;;;;;;5049280;28;20282;-33
2021/12/11 09:18:36;;;;;;;45.28;26.48;;;7.70;90.10;;;;;;5043628;28;20443;-33
2021/12/11 09:21:12;;;;;;;54.25;30.65;;;7.70;90.10;;;;;;5041808;28;20029;-44
2021/12/11 09:23:54;;;;;;;33.45;19.17;;;7.70;90.10;;;;;;5053764;28;20029;-32
2021/12/11 09:26:30;;;;;;;35.10;20.00;;;7.60;90.20;;;;;;5058777;28;20119;-33
2021/12/11 09:29:25;;;;;;;34.67;19.10;;;7.60;90.30;;;;;;5058471;28;20037;-34
2021/12/11 09:32:02;;;;;;;43.45;23.80;;;7.60;90.40;;;;;;5054841;28;20037;-33
2021/12/11 09:34:35;;;;;;;37.15;19.63;;;7.60;90.40;;;;;;5038426;28;20495;-34
2021/12/11 09:37:06;;;;;;;70.78;35.00;;;7.60;90.50;;;;;;5038730;28;20437;-44
2021/12/11 09:39:46;;;;;;;52.67;27.85;;;7.60;90.70;;;;;;5038262;28;20041;-32
2021/12/11 09:42:11;;;;;;;116.93;64.25;;;7.60;90.80;;;;;;5039045;28;20344;-44
2021/12/11 09:45:20;;;;;;;68.45;39.72;;;7.70;91.00;;;;;;5038003;28;20069;-44
2021/12/11 09:47:51;;;;;;;38.72;23.42;;;7.80;90.90;;;;;;5033619;28;20040;-44
2021/12/11 09:50:41;;;;;;;37.00;23.05;;;7.80;91.00;;;;;;5037745;28;20344;-44
2021/12/11 09:53:07;;;;;;;79.80;31.63;;;7.80;90.90;;;;;;5038318;28;20029;-35
2021/12/11 09:55:37;;;;;;;58.00;34.80;;;7.90;90.90;;;;;;5038026;28;20103;-44
2021/12/11 09:58:08;;;;;;;51.65;31.80;;;7.90;90.70;;;;;;5038659;28;20017;-36
2021/12/11 10:00:49;;;;;;;45.33;26.10;;;7.90;90.60;;;;;;5038392;28;20037;-35
2021/12/11 10:03:18;;;;;;;43.25;24.65;;;8.00;90.40;;;;;;5038635;28;20357;-35
2021/12/11 10:05:50;;;;;;;50.25;27.90;;;8.00;90.40;;;;;;5038139;28;20040;-44
2021/12/11 10:08:37;;;;;;;34.75;20.80;;;8.00;90.40;;;;;;5038326;28;20070;-34
2021/12/11 10:11:20;;;;;;;33.35;17.60;;;8.00;90.40;;;;;;5037933;28;20036;-34
2021/12/11 10:14:04;;;;;;;32.88;18.45;;;8.00;90.30;;;;;;5037613;28;20120;-44
2021/12/11 10:16:37;;;;;;;30.10;15.50;;;8.00;90.10;;;;;;5037928;28;20025;-34
2021/12/11 10:19:07;;;;;;;28.77;16.50;;;7.90;90.10;;;;;;5037815;28;20026;-44
2021/12/11 10:21:38;;;;;;;24.77;14.75;;;7.90;90.10;;;;;;5038048;28;20079;-44
2021/12/11 10:24:08;;;;;;;30.23;15.85;;;7.90;90.10;;;;;;5037910;28;20026;-34
2021/12/11 10:26:34;;;;;;;28.35;16.77;;;7.90;90.10;;;;;;5037622;28;20445;-33
2021/12/11 10:29:04;;;;;;;29.27;15.60;;;7.90;90.10;;;;;;5037771;28;20346;-32
2021/12/11 10:31:34;;;;;;;33.75;17.48;;;7.90;90.10;;;;;;5037801;28;20037;-33
2021/12/11 10:34:04;;;;;;;50.30;30.63;;;7.90;90.10;;;;;;5037176;28;20038;-44
2021/12/11 10:36:34;;;;;;;39.63;23.63;;;7.80;90.10;;;;;;5037499;28;20086;-44
2021/12/11 10:39:02;;;;;;;28.38;18.90;;;7.80;90.20;;;;;;5037264;28;20025;-44
2021/12/11 10:41:28;;;;;;;28.58;18.02;;;7.80;90.50;;;;;;5037537;28;20037;-45
2021/12/11 10:44:06;;;;;;;30.75;16.92;;;7.80;90.30;;;;;;5037327;28;20041;-43
2021/12/11 10:46:42;;;;;;;46.25;27.88;;;7.80;90.30;;;;;;5037542;28;20029;-44
2021/12/11 10:49:11;;;;;;;26.45;16.88;;;7.80;90.40;;;;;;5037186;28;20033;-44
2021/12/11 10:51:43;;;;;;;82.28;51.15;;;7.80;90.40;;;;;;5036827;28;20115;-34
2021/12/11 10:54:11;;;;;;;31.33;18.60;;;7.90;90.40;;;;;;5035730;28;20123;-43
2021/12/11 10:56:37;;;;;;;30.40;17.05;;;7.90;90.40;;;;;;5036666;28;20096;-42
2021/12/11 10:59:11;;;;;;;29.88;16.95;;;7.80;90.30;;;;;;5037182;28;20418;-45
2021/12/11 11:01:44;;;;;;;31.20;18.55;;;7.90;90.20;;;;;;5037146;28;20108;-44
2021/12/11 11:04:18;;;;;;;29.80;18.77;;;7.80;90.20;;;;;;5037329;28;20236;-44
2021/12/11 11:06:45;;;;;;;44.72;25.55;;;7.80;90.20;;;;;;5037119;28;20099;-43
2021/12/11 11:09:13;;;;;;;36.28;20.73;;;7.80;90.20;;;;;;5036135;28;20339;-34
2021/12/11 11:11:39;;;;;;;35.47;22.05;;;7.80;90.20;;;;;;5036535;28;20437;-33
2021/12/11 11:14:07;;;;;;;50.03;31.80;;;7.80;90.30;;;;;;5036614;28;20033;-44
2021/12/11 11:16:34;;;;;;;45.00;24.60;;;7.80;90.40;;;;;;5036657;28;20052;-34
2021/12/11 11:18:59;;;;;;;32.38;19.80;;;7.80;90.30;;;;;;5036259;28;20029;-34
2021/12/11 11:21:37;;;;;;;28.35;17.95;;;7.80;90.20;;;;;;5036727;28;20021;-34
2021/12/11 11:24:05;;;;;;;30.42;15.63;;;7.80;90.10;;;;;;5036279;28;20029;-32
2021/12/11 11:26:35;;;;;;;32.60;18.25;;;7.80;90.10;;;;;;5036495;28;20036;-44
2021/12/11 11:29:04;;;;;;;29.58;17.80;;;7.70;90.00;;;;;;5036693;28;20025;-45
2021/12/11 11:31:36;;;;;;;33.70;19.70;;;7.70;90.00;;;;;;5036397;28;20025;-33
2021/12/11 11:34:08;;;;;;;28.00;16.50;;;7.70;90.00;;;;;;5036230;28;20060;-44
2021/12/11 11:36:35;;;;;;;33.85;19.75;;;7.60;90.10;;;;;;5036521;28;20316;-34
2021/12/11 11:39:06;;;;;;;29.52;16.40;;;7.60;90.20;;;;;;5036158;28;20029;-33
2021/12/11 11:41:42;;;;;;;27.75;16.20;;;7.60;90.20;;;;;;5036857;28;20025;-34
2021/12/11 11:44:09;;;;;;;29.00;17.60;;;7.60;90.20;;;;;;5035268;28;20053;-34
2021/12/11 11:46:37;;;;;;;29.55;16.08;;;7.50;90.40;;;;;;5036588;28;20102;-44
2021/12/11 11:49:06;;;;;;;31.45;17.90;;;7.50;90.50;;;;;;5036237;28;20037;-43
2021/12/11 11:51:43;;;;;;;32.30;18.20;;;7.50;90.60;;;;;;5035100;28;20045;-33
2021/12/11 11:54:12;;;;;;;25.00;14.65;;;7.50;90.60;;;;;;5036206;28;20370;-44
2021/12/11 11:56:47;;;;;;;26.52;14.93;;;7.60;90.60;;;;;;5036388;28;20393;-34
2021/12/11 11:59:14;;;;;;;25.40;14.98;;;7.60;90.60;;;;;;5035649;28;20029;-44
2021/12/11 12:01:53;;;;;;;27.88;15.93;;;7.60;90.60;;;;;;5036392;28;20033;-44
2021/12/11 12:04:22;;;;;;;27.60;13.85;;;7.60;90.40;;;;;;5035932;28;20036;-33
2021/12/11 12:06:54;;;;;;;24.50;14.82;;;7.60;90.40;;;;;;5034820;28;20045;-44
2021/12/11 12:09:23;;;;;;;31.83;16.92;;;7.60;90.40;;;;;;5035842;28;20045;-33
2021/12/11 12:11:48;;;;;;;30.50;16.42;;;7.50;90.40;;;;;;5035937;28;20452;-43
2021/12/11 12:14:18;;;;;;;33.92;17.52;;;7.50;90.40;;;;;;5035860;28;20061;-45
2021/12/11 12:16:45;;;;;;;33.90;16.47;;;7.50;90.60;;;;;;5035978;28;20033;-44
2021/12/11 12:19:12;;;;;;;30.80;17.27;;;7.50;90.60;;;;;;5035807;28;20025;-33
2021/12/11 12:21:41;;;;;;;27.70;15.32;;;7.50;90.60;;;;;;5035682;28;20430;-44
2021/12/11 12:24:07;;;;;;;26.05;15.20;;;7.50;90.60;;;;;;5035659;28;20037;-32
2021/12/11 12:26:34;;;;;;;29.92;16.55;;;7.50;90.50;;;;;;5035604;28;20094;-33
2021/12/11 12:29:03;;;;;;;30.10;16.38;;;7.50;90.60;;;;;;5035431;28;20318;-33
2021/12/11 12:31:38;;;;;;;30.75;15.85;;;7.50;90.50;;;;;;5035543;28;20171;-34
2021/12/11 12:34:04;;;;;;;29.45;14.70;;;7.50;90.50;;;;;;5035328;28;20117;-34
2021/12/11 12:36:30;;;;;;;34.08;17.15;;;7.50;90.60;;;;;;5035321;28;20418;-32
2021/12/11 12:38:57;;;;;;;35.65;18.05;;;7.50;90.60;;;;;;5035076;28;20032;-33
2021/12/11 12:41:53;;;;;;;45.33;20.30;;;7.50;90.70;;;;;;5035384;28;20422;-34
2021/12/11 12:44:21;;;;;;;41.47;21.70;;;7.50;90.80;;;;;;5035360;28;20032;-44
2021/12/11 12:46:55;;;;;;;43.60;21.33;;;7.50;90.80;;;;;;5035720;28;20369;-43
2021/12/11 12:49:29;;;;;;;45.03;24.48;;;7.50;90.80;;;;;;5035482;28;20310;-44
2021/12/11 12:52:05;;;;;;;61.03;32.38;;;7.50;90.90;;;;;;5042577;28;20171;-44
2021/12/11 12:54:31;;;;;;;64.13;36.70;;;7.50;90.90;;;;;;5036051;28;20045;-44
2021/12/11 12:57:12;;;;;;;37.92;22.77;;;7.50;90.90;;;;;;5035724;28;20326;-44
2021/12/11 12:59:41;;;;;;;48.67;23.27;;;7.50;91.00;;;;;;5035342;28;20038;-34
2021/12/11 13:02:17;;;;;;;48.85;26.33;;;7.50;91.00;;;;;;5035309;28;20255;-34
2021/12/11 13:04:49;;;;;;;43.83;23.05;;;7.60;91.10;;;;;;5035206;28;20041;-33